sensor_id;sensor_type;location;lat;lon;timestamp;P1;durP1;ratioP1;P2;durP2;ratioP2
15841;SDS011;8021;48.022;11.812;2023-04-26T00:02:06;0.30;;;0.30;;
15841;SDS011;8021;48.022;11.812;2023-04-26T00:04:33;0.40;;;0.40;;
15841;SDS011;8021;48.022;11.812;2023-04-26T00:07:01;0.40;;;0.40;;
15841;SDS011;8021;48.022;11.812;2023-04-26T00:09:29;0.40;;;0.40;;
15841;SDS011;8021;48.022;11.812;2023-04-26T00:11:56;0.45;;;0.45;;
15841;SDS011;8021;48.022;11.812;2023-04-26T00:14:25;0.40;;;0.40;;
15841;SDS011;8021;48.022;11.812;2023-04-26T00:16:53;0.35;;;0.35;;
15841;SDS011;8021;48.022;11.812;2023-04-26T00:19:20;0.40;;;0.40;;
15841;SDS011;8021;48.022;11.812;2023-04-26T00:21:49;0.30;;;0.30;;
15841;SDS011;8021;48.022;11.812;2023-04-26T00:24:16;0.40;;;0.40;;
15841;SDS011;8021;48.022;11.812;2023-04-26T00:26:44;0.35;;;0.35;;
15841;SDS011;8021;48.022;11.812;2023-04-26T00:29:11;0.40;;;0.40;;
15841;SDS011;8021;48.022;11.812;2023-04-26T00:31:40;0.40;;;0.40;;
15841;SDS011;8021;48.022;11.812;2023-04-26T00:34:08;0.30;;;0.30;;
15841;SDS011;8021;48.022;11.812;2023-04-26T00:36:35;0.40;;;0.40;;
15841;SDS011;8021;48.022;11.812;2023-04-26T00:39:03;0.40;;;0.40;;
15841;SDS011;8021;48.022;11.812;2023-04-26T00:41:30;0.40;;;0.40;;
15841;SDS011;8021;48.022;11.812;2023-04-26T00:43:58;0.30;;;0.30;;
15841;SDS011;8021;48.022;11.812;2023-04-26T00:46:25;0.30;;;0.30;;
15841;SDS011;8021;48.022;11.812;2023-04-26T00:48:55;0.30;;;0.30;;
15841;SDS011;8021;48.022;11.812;2023-04-26T00:51:23;0.40;;;0.40;;
15841;SDS011;8021;48.022;11.812;2023-04-26T00:53:52;0.40;;;0.40;;
15841;SDS011;8021;48.022;11.812;2023-04-26T00:56:19;0.40;;;0.40;;
15841;SDS011;8021;48.022;11.812;2023-04-26T00:58:47;0.40;;;0.40;;
15841;SDS011;8021;48.022;11.812;2023-04-26T01:01:15;0.30;;;0.30;;
15841;SDS011;8021;48.022;11.812;2023-04-26T01:03:43;0.40;;;0.40;;
15841;SDS011;8021;48.022;11.812;2023-04-26T01:06:13;0.40;;;0.40;;
15841;SDS011;8021;48.022;11.812;2023-04-26T01:08:41;0.30;;;0.30;;
15841;SDS011;8021;48.022;11.812;2023-04-26T01:11:08;0.40;;;0.40;;
15841;SDS011;8021;48.022;11.812;2023-04-26T01:13:36;0.32;;;0.32;;
15841;SDS011;8021;48.022;11.812;2023-04-26T01:16:04;0.45;;;0.45;;
15841;SDS011;8021;48.022;11.812;2023-04-26T01:18:33;0.30;;;0.30;;
15841;SDS011;8021;48.022;11.812;2023-04-26T01:21:01;0.40;;;0.40;;
15841;SDS011;8021;48.022;11.812;2023-04-26T01:23:31;0.30;;;0.30;;
15841;SDS011;8021;48.022;11.812;2023-04-26T01:25:59;0.30;;;0.30;;
15841;SDS011;8021;48.022;11.812;2023-04-26T01:28:26;0.50;;;0.50;;
15841;SDS011;8021;48.022;11.812;2023-04-26T01:30:54;0.30;;;0.30;;
15841;SDS011;8021;48.022;11.812;2023-04-26T01:33:22;0.30;;;0.30;;
15841;SDS011;8021;48.022;11.812;2023-04-26T01:35:50;0.47;;;0.47;;
15841;SDS011;8021;48.022;11.812;2023-04-26T01:38:18;0.30;;;0.30;;
15841;SDS011;8021;48.022;11.812;2023-04-26T01:40:47;0.50;;;0.50;;
15841;SDS011;8021;48.022;11.812;2023-04-26T01:43:14;0.40;;;0.40;;
15841;SDS011;8021;48.022;11.812;2023-04-26T01:45:45;0.50;;;0.50;;
15841;SDS011;8021;48.022;11.812;2023-04-26T01:48:28;0.50;;;0.50;;
15841;SDS011;8021;48.022;11.812;2023-04-26T01:50:55;0.43;;;0.43;;
15841;SDS011;8021;48.022;11.812;2023-04-26T01:53:23;0.40;;;0.40;;
15841;SDS011;8021;48.022;11.812;2023-04-26T01:55:52;0.40;;;0.40;;
15841;SDS011;8021;48.022;11.812;2023-04-26T01:58:20;0.40;;;0.40;;
15841;SDS011;8021;48.022;11.812;2023-04-26T02:00:48;0.40;;;0.40;;
15841;SDS011;8021;48.022;11.812;2023-04-26T02:03:15;0.40;;;0.40;;
15841;SDS011;8021;48.022;11.812;2023-04-26T02:05:43;0.45;;;0.45;;
15841;SDS011;8021;48.022;11.812;2023-04-26T02:08:11;0.40;;;0.40;;
15841;SDS011;8021;48.022;11.812;2023-04-26T02:10:38;0.47;;;0.47;;
15841;SDS011;8021;48.022;11.812;2023-04-26T02:13:07;0.60;;;0.60;;
15841;SDS011;8021;48.022;11.812;2023-04-26T02:15:35;0.40;;;0.40;;
15841;SDS011;8021;48.022;11.812;2023-04-26T02:18:02;0.40;;;0.40;;
15841;SDS011;8021;48.022;11.812;2023-04-26T02:20:30;0.50;;;0.50;;
15841;SDS011;8021;48.022;11.812;2023-04-26T02:22:58;0.40;;;0.40;;
15841;SDS011;8021;48.022;11.812;2023-04-26T02:25:25;0.40;;;0.40;;
15841;SDS011;8021;48.022;11.812;2023-04-26T02:27:53;0.40;;;0.40;;
15841;SDS011;8021;48.022;11.812;2023-04-26T02:30:22;0.40;;;0.40;;
15841;SDS011;8021;48.022;11.812;2023-04-26T02:32:52;0.40;;;0.40;;
15841;SDS011;8021;48.022;11.812;2023-04-26T02:35:20;0.40;;;0.40;;
15841;SDS011;8021;48.022;11.812;2023-04-26T02:37:47;0.45;;;0.45;;
15841;SDS011;8021;48.022;11.812;2023-04-26T02:40:18;0.40;;;0.40;;
15841;SDS011;8021;48.022;11.812;2023-04-26T02:42:45;0.30;;;0.30;;
15841;SDS011;8021;48.022;11.812;2023-04-26T02:45:13;0.40;;;0.40;;
15841;SDS011;8021;48.022;11.812;2023-04-26T02:47:42;0.40;;;0.40;;
15841;SDS011;8021;48.022;11.812;2023-04-26T02:50:10;0.40;;;0.40;;
15841;SDS011;8021;48.022;11.812;2023-04-26T02:52:38;0.40;;;0.40;;
15841;SDS011;8021;48.022;11.812;2023-04-26T02:55:06;0.40;;;0.40;;
15841;SDS011;8021;48.022;11.812;2023-04-26T02:57:34;0.40;;;0.40;;
15841;SDS011;8021;48.022;11.812;2023-04-26T03:00:05;0.30;;;0.30;;
15841;SDS011;8021;48.022;11.812;2023-04-26T03:02:42;0.47;;;0.47;;
15841;SDS011;8021;48.022;11.812;2023-04-26T03:05:10;0.40;;;0.40;;
15841;SDS011;8021;48.022;11.812;2023-04-26T03:07:37;0.30;;;0.30;;
15841;SDS011;8021;48.022;11.812;2023-04-26T03:10:05;0.40;;;0.40;;
15841;SDS011;8021;48.022;11.812;2023-04-26T03:12:34;0.47;;;0.47;;
15841;SDS011;8021;48.022;11.812;2023-04-26T03:15:02;0.40;;;0.40;;
15841;SDS011;8021;48.022;11.812;2023-04-26T03:17:30;0.50;;;0.50;;
15841;SDS011;8021;48.022;11.812;2023-04-26T03:19:59;0.40;;;0.40;;
15841;SDS011;8021;48.022;11.812;2023-04-26T03:22:28;0.30;;;0.30;;
15841;SDS011;8021;48.022;11.812;2023-04-26T03:24:55;0.30;;;0.30;;
15841;SDS011;8021;48.022;11.812;2023-04-26T03:27:25;0.30;;;0.30;;
15841;SDS011;8021;48.022;11.812;2023-04-26T03:29:53;0.38;;;0.38;;
15841;SDS011;8021;48.022;11.812;2023-04-26T03:32:21;0.40;;;0.40;;
15841;SDS011;8021;48.022;11.812;2023-04-26T03:34:49;0.50;;;0.50;;
15841;SDS011;8021;48.022;11.812;2023-04-26T03:37:18;0.30;;;0.30;;
15841;SDS011;8021;48.022;11.812;2023-04-26T03:39:53;0.40;;;0.40;;
15841;SDS011;8021;48.022;11.812;2023-04-26T03:42:21;0.40;;;0.40;;
15841;SDS011;8021;48.022;11.812;2023-04-26T03:44:49;0.45;;;0.45;;
15841;SDS011;8021;48.022;11.812;2023-04-26T03:47:16;0.50;;;0.50;;
15841;SDS011;8021;48.022;11.812;2023-04-26T03:49:44;0.40;;;0.40;;
15841;SDS011;8021;48.022;11.812;2023-04-26T03:52:11;0.30;;;0.30;;
15841;SDS011;8021;48.022;11.812;2023-04-26T03:54:40;0.40;;;0.40;;
15841;SDS011;8021;48.022;11.812;2023-04-26T03:57:07;0.40;;;0.40;;
15841;SDS011;8021;48.022;11.812;2023-04-26T03:59:35;0.40;;;0.40;;
15841;SDS011;8021;48.022;11.812;2023-04-26T04:02:03;0.30;;;0.30;;
15841;SDS011;8021;48.022;11.812;2023-04-26T04:04:31;0.40;;;0.40;;
15841;SDS011;8021;48.022;11.812;2023-04-26T04:06:59;0.38;;;0.38;;
15841;SDS011;8021;48.022;11.812;2023-04-26T04:09:26;0.30;;;0.30;;
15841;SDS011;8021;48.022;11.812;2023-04-26T04:11:56;0.40;;;0.40;;
15841;SDS011;8021;48.022;11.812;2023-04-26T04:14:24;0.40;;;0.40;;
15841;SDS011;8021;48.022;11.812;2023-04-26T04:16:52;0.40;;;0.40;;
15841;SDS011;8021;48.022;11.812;2023-04-26T04:19:19;0.30;;;0.30;;
15841;SDS011;8021;48.022;11.812;2023-04-26T04:21:47;0.30;;;0.30;;
15841;SDS011;8021;48.022;11.812;2023-04-26T04:24:15;0.30;;;0.30;;
15841;SDS011;8021;48.022;11.812;2023-04-26T04:26:42;0.40;;;0.40;;
15841;SDS011;8021;48.022;11.812;2023-04-26T04:29:12;0.40;;;0.40;;
15841;SDS011;8021;48.022;11.812;2023-04-26T04:31:42;0.40;;;0.40;;
15841;SDS011;8021;48.022;11.812;2023-04-26T04:34:09;0.40;;;0.40;;
15841;SDS011;8021;48.022;11.812;2023-04-26T04:36:39;0.50;;;0.50;;
15841;SDS011;8021;48.022;11.812;2023-04-26T04:39:07;0.47;;;0.47;;
15841;SDS011;8021;48.022;11.812;2023-04-26T04:41:39;0.50;;;0.50;;
15841;SDS011;8021;48.022;11.812;2023-04-26T04:44:14;0.30;;;0.30;;
15841;SDS011;8021;48.022;11.812;2023-04-26T04:46:43;0.35;;;0.35;;
15841;SDS011;8021;48.022;11.812;2023-04-26T04:49:10;0.40;;;0.40;;
15841;SDS011;8021;48.022;11.812;2023-04-26T04:51:38;0.40;;;0.40;;
15841;SDS011;8021;48.022;11.812;2023-04-26T04:54:09;0.40;;;0.40;;
15841;SDS011;8021;48.022;11.812;2023-04-26T04:56:37;0.38;;;0.38;;
15841;SDS011;8021;48.022;11.812;2023-04-26T04:59:05;0.40;;;0.40;;
15841;SDS011;8021;48.022;11.812;2023-04-26T05:01:35;0.30;;;0.30;;
15841;SDS011;8021;48.022;11.812;2023-04-26T05:04:07;0.40;;;0.40;;
15841;SDS011;8021;48.022;11.812;2023-04-26T05:06:36;0.40;;;0.40;;
15841;SDS011;8021;48.022;11.812;2023-04-26T05:09:03;0.40;;;0.40;;
15841;SDS011;8021;48.022;11.812;2023-04-26T05:11:32;0.40;;;0.40;;
15841;SDS011;8021;48.022;11.812;2023-04-26T05:14:00;0.38;;;0.38;;
15841;SDS011;8021;48.022;11.812;2023-04-26T05:16:29;0.30;;;0.30;;
15841;SDS011;8021;48.022;11.812;2023-04-26T05:18:59;0.40;;;0.40;;
15841;SDS011;8021;48.022;11.812;2023-04-26T05:21:27;0.50;;;0.50;;
15841;SDS011;8021;48.022;11.812;2023-04-26T05:23:55;0.32;;;0.32;;
15841;SDS011;8021;48.022;11.812;2023-04-26T05:26:23;0.47;;;0.47;;
15841;SDS011;8021;48.022;11.812;2023-04-26T05:28:50;0.40;;;0.40;;
15841;SDS011;8021;48.022;11.812;2023-04-26T05:31:36;0.38;;;0.38;;
15841;SDS011;8021;48.022;11.812;2023-04-26T05:34:34;0.30;;;0.30;;
15841;SDS011;8021;48.022;11.812;2023-04-26T05:37:03;0.30;;;0.30;;
15841;SDS011;8021;48.022;11.812;2023-04-26T05:39:32;0.40;;;0.40;;
15841;SDS011;8021;48.022;11.812;2023-04-26T05:41:59;0.40;;;0.40;;
15841;SDS011;8021;48.022;11.812;2023-04-26T05:44:28;0.40;;;0.40;;
15841;SDS011;8021;48.022;11.812;2023-04-26T05:46:56;0.30;;;0.30;;
15841;SDS011;8021;48.022;11.812;2023-04-26T05:49:25;0.30;;;0.30;;
15841;SDS011;8021;48.022;11.812;2023-04-26T05:51:53;0.38;;;0.38;;
15841;SDS011;8021;48.022;11.812;2023-04-26T05:54:21;0.43;;;0.43;;
15841;SDS011;8021;48.022;11.812;2023-04-26T05:56:49;0.38;;;0.38;;
15841;SDS011;8021;48.022;11.812;2023-04-26T05:59:16;0.40;;;0.40;;
15841;SDS011;8021;48.022;11.812;2023-04-26T06:01:44;0.47;;;0.47;;
15841;SDS011;8021;48.022;11.812;2023-04-26T06:04:11;0.32;;;0.32;;
15841;SDS011;8021;48.022;11.812;2023-04-26T06:07:00;0.50;;;0.50;;
15841;SDS011;8021;48.022;11.812;2023-04-26T06:09:29;0.40;;;0.40;;
15841;SDS011;8021;48.022;11.812;2023-04-26T06:11:57;0.40;;;0.40;;
15841;SDS011;8021;48.022;11.812;2023-04-26T06:14:25;0.50;;;0.50;;
15841;SDS011;8021;48.022;11.812;2023-04-26T06:17:01;0.45;;;0.45;;
15841;SDS011;8021;48.022;11.812;2023-04-26T06:19:28;0.50;;;0.50;;
15841;SDS011;8021;48.022;11.812;2023-04-26T06:21:57;0.30;;;0.30;;
15841;SDS011;8021;48.022;11.812;2023-04-26T06:24:26;0.35;;;0.35;;
15841;SDS011;8021;48.022;11.812;2023-04-26T06:26:54;0.43;;;0.43;;
15841;SDS011;8021;48.022;11.812;2023-04-26T06:29:22;0.40;;;0.40;;
15841;SDS011;8021;48.022;11.812;2023-04-26T06:31:49;0.30;;;0.30;;
15841;SDS011;8021;48.022;11.812;2023-04-26T06:34:20;0.40;;;0.40;;
15841;SDS011;8021;48.022;11.812;2023-04-26T06:36:48;0.40;;;0.40;;
15841;SDS011;8021;48.022;11.812;2023-04-26T06:39:16;0.40;;;0.40;;
15841;SDS011;8021;48.022;11.812;2023-04-26T06:41:45;0.45;;;0.45;;
15841;SDS011;8021;48.022;11.812;2023-04-26T06:44:23;0.30;;;0.30;;
15841;SDS011;8021;48.022;11.812;2023-04-26T06:46:55;0.30;;;0.30;;
15841;SDS011;8021;48.022;11.812;2023-04-26T06:49:22;0.40;;;0.40;;
15841;SDS011;8021;48.022;11.812;2023-04-26T06:51:50;0.40;;;0.40;;
15841;SDS011;8021;48.022;11.812;2023-04-26T06:54:18;0.30;;;0.30;;
15841;SDS011;8021;48.022;11.812;2023-04-26T06:56:47;0.30;;;0.30;;
15841;SDS011;8021;48.022;11.812;2023-04-26T06:59:14;0.50;;;0.50;;
15841;SDS011;8021;48.022;11.812;2023-04-26T07:01:42;0.40;;;0.40;;
15841;SDS011;8021;48.022;11.812;2023-04-26T07:04:09;0.30;;;0.30;;
15841;SDS011;8021;48.022;11.812;2023-04-26T07:06:37;0.35;;;0.35;;
15841;SDS011;8021;48.022;11.812;2023-04-26T07:09:05;0.40;;;0.40;;
15841;SDS011;8021;48.022;11.812;2023-04-26T07:11:33;0.40;;;0.40;;
15841;SDS011;8021;48.022;11.812;2023-04-26T07:14:02;0.40;;;0.40;;
15841;SDS011;8021;48.022;11.812;2023-04-26T07:16:29;0.40;;;0.40;;
15841;SDS011;8021;48.022;11.812;2023-04-26T07:18:57;0.40;;;0.40;;
15841;SDS011;8021;48.022;11.812;2023-04-26T07:21:24;0.40;;;0.40;;
15841;SDS011;8021;48.022;11.812;2023-04-26T07:23:52;0.38;;;0.38;;
15841;SDS011;8021;48.022;11.812;2023-04-26T07:26:20;0.40;;;0.40;;
15841;SDS011;8021;48.022;11.812;2023-04-26T07:28:49;0.40;;;0.40;;
15841;SDS011;8021;48.022;11.812;2023-04-26T07:31:18;0.35;;;0.35;;
15841;SDS011;8021;48.022;11.812;2023-04-26T07:33:45;0.30;;;0.30;;
15841;SDS011;8021;48.022;11.812;2023-04-26T07:36:13;0.30;;;0.30;;
15841;SDS011;8021;48.022;11.812;2023-04-26T07:38:41;0.30;;;0.30;;
15841;SDS011;8021;48.022;11.812;2023-04-26T07:41:08;0.30;;;0.30;;
15841;SDS011;8021;48.022;11.812;2023-04-26T07:43:38;0.30;;;0.30;;
15841;SDS011;8021;48.022;11.812;2023-04-26T07:46:05;0.30;;;0.30;;
15841;SDS011;8021;48.022;11.812;2023-04-26T07:48:34;0.30;;;0.30;;
15841;SDS011;8021;48.022;11.812;2023-04-26T07:51:08;0.20;;;0.20;;
15841;SDS011;8021;48.022;11.812;2023-04-26T07:53:36;0.40;;;0.40;;
15841;SDS011;8021;48.022;11.812;2023-04-26T07:56:04;0.30;;;0.30;;
15841;SDS011;8021;48.022;11.812;2023-04-26T07:58:32;0.30;;;0.20;;
15841;SDS011;8021;48.022;11.812;2023-04-26T08:01:01;0.20;;;0.20;;
15841;SDS011;8021;48.022;11.812;2023-04-26T08:03:29;0.20;;;0.20;;
15841;SDS011;8021;48.022;11.812;2023-04-26T08:05:59;0.30;;;0.20;;
15841;SDS011;8021;48.022;11.812;2023-04-26T08:08:27;0.30;;;0.30;;
15841;SDS011;8021;48.022;11.812;2023-04-26T08:10:55;0.20;;;0.20;;
15841;SDS011;8021;48.022;11.812;2023-04-26T08:13:22;0.13;;;0.10;;
15841;SDS011;8021;48.022;11.812;2023-04-26T08:15:53;0.20;;;0.20;;
15841;SDS011;8021;48.022;11.812;2023-04-26T08:18:21;0.10;;;0.10;;
15841;SDS011;8021;48.022;11.812;2023-04-26T08:20:48;0.10;;;0.10;;
15841;SDS011;8021;48.022;11.812;2023-04-26T08:23:17;0.10;;;0.10;;
15841;SDS011;8021;48.022;11.812;2023-04-26T08:25:45;0.10;;;0.10;;
15841;SDS011;8021;48.022;11.812;2023-04-26T08:28:13;0.10;;;0.10;;
15841;SDS011;8021;48.022;11.812;2023-04-26T08:30:41;0.10;;;0.10;;
15841;SDS011;8021;48.022;11.812;2023-04-26T08:33:08;0.20;;;0.20;;
15841;SDS011;8021;48.022;11.812;2023-04-26T08:35:36;0.20;;;0.10;;
15841;SDS011;8021;48.022;11.812;2023-04-26T08:38:03;0.20;;;0.20;;
15841;SDS011;8021;48.022;11.812;2023-04-26T08:40:32;0.20;;;0.10;;
15841;SDS011;8021;48.022;11.812;2023-04-26T08:43:00;0.20;;;0.10;;
15841;SDS011;8021;48.022;11.812;2023-04-26T08:45:27;0.20;;;0.10;;
15841;SDS011;8021;48.022;11.812;2023-04-26T08:47:55;0.20;;;0.20;;
15841;SDS011;8021;48.022;11.812;2023-04-26T08:50:27;0.20;;;0.20;;
15841;SDS011;8021;48.022;11.812;2023-04-26T08:52:56;0.20;;;0.20;;
15841;SDS011;8021;48.022;11.812;2023-04-26T08:55:23;0.20;;;0.20;;
15841;SDS011;8021;48.022;11.812;2023-04-26T08:57:52;0.25;;;0.20;;
15841;SDS011;8021;48.022;11.812;2023-04-26T09:00:21;0.20;;;0.20;;
15841;SDS011;8021;48.022;11.812;2023-04-26T09:02:49;0.20;;;0.20;;
15841;SDS011;8021;48.022;11.812;2023-04-26T09:05:18;0.20;;;0.20;;
15841;SDS011;8021;48.022;11.812;2023-04-26T09:07:49;0.20;;;0.20;;
15841;SDS011;8021;48.022;11.812;2023-04-26T09:10:18;0.20;;;0.20;;
15841;SDS011;8021;48.022;11.812;2023-04-26T09:12:49;0.20;;;0.20;;
15841;SDS011;8021;48.022;11.812;2023-04-26T09:15:19;0.20;;;0.20;;
15841;SDS011;8021;48.022;11.812;2023-04-26T09:17:47;0.20;;;0.20;;
15841;SDS011;8021;48.022;11.812;2023-04-26T09:20:18;0.20;;;0.20;;
15841;SDS011;8021;48.022;11.812;2023-04-26T09:22:45;0.20;;;0.20;;
15841;SDS011;8021;48.022;11.812;2023-04-26T09:25:14;0.20;;;0.20;;
15841;SDS011;8021;48.022;11.812;2023-04-26T09:27:43;0.20;;;0.20;;
15841;SDS011;8021;48.022;11.812;2023-04-26T09:30:11;0.20;;;0.20;;
15841;SDS011;8021;48.022;11.812;2023-04-26T09:32:49;0.20;;;0.20;;
15841;SDS011;8021;48.022;11.812;2023-04-26T09:35:19;0.20;;;0.20;;
15841;SDS011;8021;48.022;11.812;2023-04-26T09:37:50;0.20;;;0.20;;
15841;SDS011;8021;48.022;11.812;2023-04-26T09:40:26;0.20;;;0.20;;
15841;SDS011;8021;48.022;11.812;2023-04-26T09:42:58;0.30;;;0.20;;
15841;SDS011;8021;48.022;11.812;2023-04-26T09:45:27;0.30;;;0.20;;
15841;SDS011;8021;48.022;11.812;2023-04-26T09:47:56;0.20;;;0.20;;
15841;SDS011;8021;48.022;11.812;2023-04-26T09:50:38;0.30;;;0.25;;
15841;SDS011;8021;48.022;11.812;2023-04-26T09:53:06;0.30;;;0.20;;
15841;SDS011;8021;48.022;11.812;2023-04-26T09:55:33;0.32;;;0.32;;
15841;SDS011;8021;48.022;11.812;2023-04-26T09:58:07;0.30;;;0.30;;
15841;SDS011;8021;48.022;11.812;2023-04-26T10:00:35;0.20;;;0.10;;
15841;SDS011;8021;48.022;11.812;2023-04-26T10:03:04;0.20;;;0.13;;
15841;SDS011;8021;48.022;11.812;2023-04-26T10:05:32;0.20;;;0.20;;
15841;SDS011;8021;48.022;11.812;2023-04-26T10:08:00;0.20;;;0.20;;
15841;SDS011;8021;48.022;11.812;2023-04-26T10:10:29;0.20;;;0.20;;
15841;SDS011;8021;48.022;11.812;2023-04-26T10:12:56;0.22;;;0.22;;
15841;SDS011;8021;48.022;11.812;2023-04-26T10:15:24;0.20;;;0.20;;
15841;SDS011;8021;48.022;11.812;2023-04-26T10:17:52;0.20;;;0.20;;
15841;SDS011;8021;48.022;11.812;2023-04-26T10:20:21;0.30;;;0.30;;
15841;SDS011;8021;48.022;11.812;2023-04-26T10:22:50;0.20;;;0.13;;
15841;SDS011;8021;48.022;11.812;2023-04-26T10:25:18;0.20;;;0.20;;
15841;SDS011;8021;48.022;11.812;2023-04-26T10:27:46;0.20;;;0.20;;
15841;SDS011;8021;48.022;11.812;2023-04-26T10:30:14;0.30;;;0.22;;
15841;SDS011;8021;48.022;11.812;2023-04-26T10:35:41;0.20;;;0.20;;
15841;SDS011;8021;48.022;11.812;2023-04-26T10:38:26;0.20;;;0.20;;
15841;SDS011;8021;48.022;11.812;2023-04-26T10:40:53;0.30;;;0.30;;
15841;SDS011;8021;48.022;11.812;2023-04-26T10:43:30;0.20;;;0.20;;
15841;SDS011;8021;48.022;11.812;2023-04-26T10:45:58;0.20;;;0.20;;
15841;SDS011;8021;48.022;11.812;2023-04-26T10:48:45;0.20;;;0.20;;
15841;SDS011;8021;48.022;11.812;2023-04-26T10:51:14;0.20;;;0.20;;
15841;SDS011;8021;48.022;11.812;2023-04-26T10:53:57;0.20;;;0.20;;
15841;SDS011;8021;48.022;11.812;2023-04-26T10:59:11;0.30;;;0.30;;
15841;SDS011;8021;48.022;11.812;2023-04-26T11:01:59;0.20;;;0.20;;
15841;SDS011;8021;48.022;11.812;2023-04-26T11:04:35;0.20;;;0.20;;
15841;SDS011;8021;48.022;11.812;2023-04-26T11:07:18;0.30;;;0.20;;
15841;SDS011;8021;48.022;11.812;2023-04-26T11:10:02;0.30;;;0.20;;
15841;SDS011;8021;48.022;11.812;2023-04-26T11:12:29;0.20;;;0.20;;
15841;SDS011;8021;48.022;11.812;2023-04-26T11:14:59;0.20;;;0.20;;
15841;SDS011;8021;48.022;11.812;2023-04-26T11:17:27;0.20;;;0.20;;
15841;SDS011;8021;48.022;11.812;2023-04-26T11:19:54;0.20;;;0.20;;
15841;SDS011;8021;48.022;11.812;2023-04-26T11:22:24;0.30;;;0.20;;
15841;SDS011;8021;48.022;11.812;2023-04-26T11:24:51;0.20;;;0.20;;
15841;SDS011;8021;48.022;11.812;2023-04-26T11:27:18;0.20;;;0.20;;
15841;SDS011;8021;48.022;11.812;2023-04-26T11:29:46;0.20;;;0.20;;
15841;SDS011;8021;48.022;11.812;2023-04-26T11:32:13;0.20;;;0.20;;
15841;SDS011;8021;48.022;11.812;2023-04-26T11:34:41;0.20;;;0.20;;
15841;SDS011;8021;48.022;11.812;2023-04-26T11:37:09;0.20;;;0.20;;
15841;SDS011;8021;48.022;11.812;2023-04-26T11:39:38;0.30;;;0.20;;
15841;SDS011;8021;48.022;11.812;2023-04-26T11:42:05;0.20;;;0.20;;
15841;SDS011;8021;48.022;11.812;2023-04-26T11:44:33;0.30;;;0.20;;
15841;SDS011;8021;48.022;11.812;2023-04-26T11:47:01;0.30;;;0.20;;
15841;SDS011;8021;48.022;11.812;2023-04-26T11:49:30;0.20;;;0.15;;
15841;SDS011;8021;48.022;11.812;2023-04-26T11:51:57;0.20;;;0.20;;
15841;SDS011;8021;48.022;11.812;2023-04-26T11:54:25;0.20;;;0.20;;
15841;SDS011;8021;48.022;11.812;2023-04-26T11:56:54;0.22;;;0.17;;
15841;SDS011;8021;48.022;11.812;2023-04-26T11:59:22;0.20;;;0.20;;
15841;SDS011;8021;48.022;11.812;2023-04-26T12:01:50;0.25;;;0.25;;
15841;SDS011;8021;48.022;11.812;2023-04-26T12:04:18;0.20;;;0.20;;
15841;SDS011;8021;48.022;11.812;2023-04-26T12:06:46;0.20;;;0.20;;
15841;SDS011;8021;48.022;11.812;2023-04-26T12:09:14;0.20;;;0.20;;
15841;SDS011;8021;48.022;11.812;2023-04-26T12:11:46;0.20;;;0.10;;
15841;SDS011;8021;48.022;11.812;2023-04-26T12:14:15;0.20;;;0.20;;
15841;SDS011;8021;48.022;11.812;2023-04-26T12:16:43;0.20;;;0.20;;
15841;SDS011;8021;48.022;11.812;2023-04-26T12:19:12;0.20;;;0.20;;
15841;SDS011;8021;48.022;11.812;2023-04-26T12:21:40;0.20;;;0.20;;
15841;SDS011;8021;48.022;11.812;2023-04-26T12:24:19;0.20;;;0.20;;
15841;SDS011;8021;48.022;11.812;2023-04-26T12:26:47;0.20;;;0.20;;
15841;SDS011;8021;48.022;11.812;2023-04-26T12:29:16;0.30;;;0.20;;
15841;SDS011;8021;48.022;11.812;2023-04-26T12:31:43;0.20;;;0.10;;
15841;SDS011;8021;48.022;11.812;2023-04-26T12:34:11;0.30;;;0.25;;
15841;SDS011;8021;48.022;11.812;2023-04-26T12:36:39;0.20;;;0.20;;
15841;SDS011;8021;48.022;11.812;2023-04-26T12:39:07;0.20;;;0.20;;
15841;SDS011;8021;48.022;11.812;2023-04-26T12:41:34;0.10;;;0.10;;
15841;SDS011;8021;48.022;11.812;2023-04-26T12:44:01;0.20;;;0.20;;
15841;SDS011;8021;48.022;11.812;2023-04-26T12:46:30;0.20;;;0.20;;
15841;SDS011;8021;48.022;11.812;2023-04-26T12:48:58;0.20;;;0.20;;
15841;SDS011;8021;48.022;11.812;2023-04-26T12:51:25;0.20;;;0.20;;
15841;SDS011;8021;48.022;11.812;2023-04-26T12:53:53;0.20;;;0.20;;
15841;SDS011;8021;48.022;11.812;2023-04-26T12:56:20;0.30;;;0.20;;
15841;SDS011;8021;48.022;11.812;2023-04-26T12:58:48;0.30;;;0.30;;
15841;SDS011;8021;48.022;11.812;2023-04-26T13:01:15;0.20;;;0.20;;
15841;SDS011;8021;48.022;11.812;2023-04-26T13:03:44;0.22;;;0.22;;
15841;SDS011;8021;48.022;11.812;2023-04-26T13:06:12;0.30;;;0.20;;
15841;SDS011;8021;48.022;11.812;2023-04-26T13:08:40;0.28;;;0.20;;
15841;SDS011;8021;48.022;11.812;2023-04-26T13:11:07;0.20;;;0.20;;
15841;SDS011;8021;48.022;11.812;2023-04-26T13:13:35;0.20;;;0.20;;
15841;SDS011;8021;48.022;11.812;2023-04-26T13:16:09;0.20;;;0.20;;
15841;SDS011;8021;48.022;11.812;2023-04-26T13:18:38;0.28;;;0.20;;
15841;SDS011;8021;48.022;11.812;2023-04-26T13:21:07;0.20;;;0.20;;
15841;SDS011;8021;48.022;11.812;2023-04-26T13:23:35;0.30;;;0.30;;
15841;SDS011;8021;48.022;11.812;2023-04-26T13:26:02;0.20;;;0.20;;
15841;SDS011;8021;48.022;11.812;2023-04-26T13:28:30;0.30;;;0.20;;
15841;SDS011;8021;48.022;11.812;2023-04-26T13:30:57;0.20;;;0.20;;
15841;SDS011;8021;48.022;11.812;2023-04-26T13:33:25;0.20;;;0.20;;
15841;SDS011;8021;48.022;11.812;2023-04-26T13:35:52;0.20;;;0.20;;
15841;SDS011;8021;48.022;11.812;2023-04-26T13:38:21;0.20;;;0.20;;
15841;SDS011;8021;48.022;11.812;2023-04-26T13:40:49;0.20;;;0.20;;
15841;SDS011;8021;48.022;11.812;2023-04-26T13:43:17;0.20;;;0.20;;
15841;SDS011;8021;48.022;11.812;2023-04-26T13:45:44;0.20;;;0.20;;
15841;SDS011;8021;48.022;11.812;2023-04-26T13:48:12;0.20;;;0.20;;
15841;SDS011;8021;48.022;11.812;2023-04-26T13:50:39;0.20;;;0.20;;
15841;SDS011;8021;48.022;11.812;2023-04-26T13:53:07;0.20;;;0.20;;
15841;SDS011;8021;48.022;11.812;2023-04-26T13:55:36;0.28;;;0.20;;
15841;SDS011;8021;48.022;11.812;2023-04-26T13:58:04;0.20;;;0.20;;
15841;SDS011;8021;48.022;11.812;2023-04-26T14:00:31;0.28;;;0.28;;
15841;SDS011;8021;48.022;11.812;2023-04-26T14:02:59;0.28;;;0.28;;
15841;SDS011;8021;48.022;11.812;2023-04-26T14:05:27;0.20;;;0.20;;
15841;SDS011;8021;48.022;11.812;2023-04-26T14:07:54;0.30;;;0.20;;
15841;SDS011;8021;48.022;11.812;2023-04-26T14:10:22;0.20;;;0.20;;
15841;SDS011;8021;48.022;11.812;2023-04-26T14:12:51;0.30;;;0.28;;
15841;SDS011;8021;48.022;11.812;2023-04-26T14:15:18;0.20;;;0.10;;
15841;SDS011;8021;48.022;11.812;2023-04-26T14:17:46;0.20;;;0.20;;
15841;SDS011;8021;48.022;11.812;2023-04-26T14:20:14;0.20;;;0.20;;
15841;SDS011;8021;48.022;11.812;2023-04-26T14:22:41;0.20;;;0.20;;
15841;SDS011;8021;48.022;11.812;2023-04-26T14:25:08;0.20;;;0.20;;
15841;SDS011;8021;48.022;11.812;2023-04-26T14:27:37;0.20;;;0.13;;
15841;SDS011;8021;48.022;11.812;2023-04-26T14:30:06;0.20;;;0.20;;
15841;SDS011;8021;48.022;11.812;2023-04-26T14:32:34;0.20;;;0.20;;
15841;SDS011;8021;48.022;11.812;2023-04-26T14:35:02;0.20;;;0.20;;
15841;SDS011;8021;48.022;11.812;2023-04-26T14:37:30;0.20;;;0.20;;
15841;SDS011;8021;48.022;11.812;2023-04-26T14:39:57;0.20;;;0.20;;
15841;SDS011;8021;48.022;11.812;2023-04-26T14:42:25;0.20;;;0.20;;
15841;SDS011;8021;48.022;11.812;2023-04-26T14:44:52;0.20;;;0.20;;
15841;SDS011;8021;48.022;11.812;2023-04-26T14:47:21;0.20;;;0.10;;
15841;SDS011;8021;48.022;11.812;2023-04-26T14:49:49;0.20;;;0.20;;
15841;SDS011;8021;48.022;11.812;2023-04-26T14:52:16;0.20;;;0.20;;
15841;SDS011;8021;48.022;11.812;2023-04-26T14:54:44;0.20;;;0.20;;
15841;SDS011;8021;48.022;11.812;2023-04-26T14:57:11;0.20;;;0.20;;
15841;SDS011;8021;48.022;11.812;2023-04-26T14:59:39;0.30;;;0.30;;
15841;SDS011;8021;48.022;11.812;2023-04-26T15:02:07;0.20;;;0.20;;
15841;SDS011;8021;48.022;11.812;2023-04-26T15:04:36;0.30;;;0.20;;